Emad El Hadary

Chefscout - Ittihad
25 Nov 2027
Donnerstag
Verarbeitung

Persönlichkeit

Anpassungsfähigkeit (18) Ehrgeiz (18) Kontroverse (8) Loyalität (16) Druck (18) Professionalität (16) Fairness (12) Temperament (14)

Profil

Trainerstil Demokratisch
Lizenz Nationale A
Entschlossenheit 7
Menschenführung 10
Motivation 8
Disziplin 10
Arbeitszufriedenheit
100%
Ermüdung
0%
Rolle Chefscout
Gehalt 26.2K p/W
Vertrag 14.03.2028

Leistung

Verhalten Gut
Trainingseffektivität
35%
Spielerentwicklung
55%
Verletzungsprävention
40%
Taktische Umsetzung
30%

Letzte Ereignisse

Nahm an einer Scouting-Besprechung teil jetzt
Empfahl ein Transferziel jetzt
Nahm an einer Scouting-Besprechung teil jetzt
Nahm an einer Scouting-Besprechung teil 7T her
Spieler begutachtet 7T her
Spieler begutachtet 7T her
Spieler begutachtet 7T her
Spieler begutachtet 7T her

Aktuell beobachtet

149
Spieler Verein Status Fähigkeit Vertrauen Beobachtet Zuletzt beobachtet Letzte Stimme
Abuchi Okeke Kano Pillars Aktiv 94 / 94 40% 2 24.11.2027 -
Agustín Buffa Wanderers Aktiv 108 / 89 40% 1 24.11.2027 -
Nicolás Sumavil Platense Aktiv 120 / 123 40% 1 24.11.2027 -
Joaquín Bigo Tristán Suárez Aktiv 109 / 121 40% 2 23.11.2027 -
Ikenna Benjamin Bayelsa United Aktiv 83 / 99 40% 2 23.11.2027 -
Moisés Gallo Zulia Aktiv 93 / 101 40% 1 23.11.2027 -
Chisom Chiaha Barau Aktiv 92 / 98 40% 4 21.11.2027 -
Gastón Fernández Chacarita Juniors Aktiv 101 / 106 40% 2 21.11.2027 -
Mustapha Lawal Shooting Stars Aktiv 112 / 106 40% 2 21.11.2027 -
Kevin Ouru Mathare United Aktiv 79 / 96 40% 2 19.11.2027 -
Karim Fouad Aswan Aktiv 122 / 122 42% 1 / 1m 17.11.2027 -
Francisco Coirolo Oriental Aktiv 108 / 91 40% 1 17.11.2027 -
Leopold Wahlstedt Rosenborg Aktiv 135 / 132 40% 3 16.11.2027 -
Nurudeen Badmos Kwara United Aktiv 104 / 83 40% 1 16.11.2027 -
Francisco Salerno Defensores Unidos Aktiv 107 / 97 40% 1 16.11.2027 -
Renzo Bacchia Racing Aktiv 128 / 112 40% 1 15.11.2027 -
Franco Rivasseau Patronato Aktiv 100 / 104 40% 1 15.11.2027 -
Lautaro Petruchi Gimnasia y Esgrima Aktiv 118 / 110 40% 3 14.11.2027 -
Ali Ishaku Abia Warriors Aktiv 102 / 102 40% 2 14.11.2027 -
Divine Chidera Rangers International Aktiv 94 / 92 40% 1 14.11.2027 -
Khaled Tawhid Sioni Aktiv 89 / 81 40% 2 13.11.2027 -
Enzo Vázquez Central Norte Aktiv 110 / 112 40% 3 10.11.2027 -
Emmanuel Gómez Riga Alvarado Aktiv 129 / 115 40% 1 10.11.2027 -
Akpan Nsikak-Abong Kun Khalifat Aktiv 84 / 75 40% 1 10.11.2027 -
Facundo Vila Estudiantes Aktiv 107 / 121 40% 1 08.11.2027 -
Mauro Casoli Talleres Aktiv 101 / 94 40% 1 08.11.2027 -
Elias Hadaya Sandefjord Aktiv 127 / 100 40% 1 05.11.2027 -
Ifeanyi Emmanuel Niger Tornadoes Aktiv 109 / 120 40% 1 04.11.2027 -
Diego Romero Universitario Aktiv 138 / 113 40% 1 03.11.2027 -
Chizoba Okoh Wikki Tourists Aktiv 92 / 104 40% 1 01.11.2027 -
Sebastián Jaume Albion Aktiv 99 / 122 40% 1 01.11.2027 -
Francisco Castillo Llaneros Aktiv 116 / 118 40% 1 01.11.2027 -
Mostafa Marwan Masr El Makasa Aktiv 115 / 101 40% 2 19.07.2027 -
Job Ochieng Real Sociedad Aktiv 112 / 119 40% 1 19.07.2027 -
Robert Mizo Ashanti Gold Verhandlung 109 / 115 40% 1 19.07.2027 -
Mduduzi Shabalala Kaizer Chiefs Aktiv 122 / 121 40% 4 12.07.2027 Beobachten
Sonny Carey Charlton Athletic Aktiv 123 / 120 40% 1 12.07.2027 -
Cian Ashford Cardiff City Aktiv 121 / 126 40% 1 12.07.2027 -
Jay Matete Milton Keynes Dons Aktiv 104 / 116 40% 1 21.06.2027 -
Darlin Yongwa Norwich City Aktiv 129 / 125 40% 1 21.06.2027 -
Josh Benson Rotherham United Aktiv 108 / 95 40% 1 21.06.2027 -
Mahmoud Wahid Police Union Verloren 102 / 104 69% 1 14.06.2027 -
Saeid Sadeghi Foolad Verloren 109 / 109 66% 1 01.06.2027 -
Goga Kobiashvili Veres Verhandlung 92 / 92 66% 1 01.06.2027 -
Shota Shekiladze Akhmat Grozny Verhandlung 110 / 110 66% 1 01.06.2027 -
Mandla Erasmus SuperSport United Aktiv 115 / 134 40% 5 31.05.2027 -
Eli King Gillingham Aktiv 116 / 121 40% 1 31.05.2027 -
Lewis Freestone Stevenage Aktiv 106 / 117 40% 1 31.05.2027 -
Tshepang Moremi Orlando Pirates Aktiv 106 / 119 40% 6 29.05.2027 -
Milson Al Jazira Aktiv 133 / 140 40% 3 29.05.2027 -
Ryan Glover Barnet Aktiv 99 / 97 40% 1 29.05.2027 -
Matheus Gonçalves Al-Ahli Aktiv 124 / 136 40% 3 27.05.2027 -
Joseph Hungbo Wigan Athletic Aktiv 110 / 121 40% 3 27.05.2027 -
Bernat Guiu Virtus Entella Aktiv 115 / 114 40% 2 26.05.2027 -
Jayden Nelson Bolton Wanderers Aktiv 119 / 118 40% 1 26.05.2027 -
Paddy Lane Reading Aktiv 120 / 93 40% 1 26.05.2027 -
Mohau Nkota Al-Ettifaq Aktiv 122 / 124 40% 2 25.05.2027 -
Xavier Amaechi Plymouth Argyle Aktiv 107 / 94 40% 1 25.05.2027 -
James Morris Leyton Orient Aktiv 115 / 126 40% 1 25.05.2027 -
Mohamed Simakan Al-Nassr Aktiv 135 / 138 40% 1 25.05.2027 -
Justin Devenny Stoke City Aktiv 131 / 133 40% 1 25.05.2027 -
Serginho Al Wasl Aktiv 139 / 129 40% 4 22.05.2027 -
Pelle Mattsson Norwich City Aktiv 116 / 135 40% 1 22.05.2027 -
Adam Gnezda Čerin Al Wahda Aktiv 122 / 130 40% 3 21.05.2027 -
Mohamed Zoungrana MC Alger Aktiv 112 / 121 40% 3 21.05.2027 -
Zak Swanson Bradford City Aktiv 126 / 129 40% 3 21.05.2027 -
Dhari Al-Anazi Al-Shabab Aktiv 107 / 106 40% 1 21.05.2027 -
Jacques Ekomié Wrexham Aktiv 126 / 128 40% 3 19.05.2027 -
Rio Adébísí Peterborough United Aktiv 90 / 82 40% 1 19.05.2027 -
Udoka Godwin-Malife Burton Albion Aktiv 113 / 116 40% 1 19.05.2027 -
Jack Diamond Stockport County Aktiv 112 / 127 40% 4 17.05.2027 -
Jason Knight Bristol City Aktiv 118 / 128 40% 1 17.05.2027 -
Sam Bell Bristol City Aktiv 115 / 115 40% 1 17.05.2027 -
Ethan Williams Peterborough United Aktiv 108 / 111 40% 2 14.05.2027 -
David Turnbull Cardiff City Aktiv 119 / 107 40% 3 14.05.2027 -
Sam Mather Bromley Aktiv 99 / 92 40% 2 14.05.2027 -
Kwame Poku Queens Park Rangers Aktiv 113 / 139 40% 2 13.05.2027 -
Parfait Guiagon Al-Taawoun Aktiv 126 / 138 40% 4 12.05.2027 -
Luan Pereira Sharjah Aktiv 117 / 125 40% 2 12.05.2027 -
Jack Moylan Lincoln City Aktiv 105 / 124 40% 1 11.05.2027 -
Eom Ji-Sung Swansea City Aktiv 114 / 102 40% 1 11.05.2027 -
Harry Leonard Peterborough United Aktiv 112 / 116 40% 2 10.05.2027 -
Lewis Bate Stockport County Aktiv 113 / 105 40% 1 09.05.2027 -
Michele Ambrosini AlbinoLeffe Aktiv 114 / 108 40% 1 09.05.2027 -
Akin Odimayo Crawley Town Aktiv 103 / 88 40% 1 09.05.2027 -
Matthew Sorinola Newport County Aktiv 101 / 95 40% 1 09.05.2027 -
Kyle John Port Vale Aktiv 118 / 116 40% 1 09.05.2027 -
Ollie Tanner Cardiff City Aktiv 109 / 112 40% 4 07.05.2027 -
Jack Currie Oxford United Aktiv 117 / 136 40% 2 07.05.2027 -
Aboubacar Doumbia Al-Orobah Aktiv 103 / 91 40% 1 07.05.2027 -
Ilario Monterisi Frosinone Aktiv 132 / 127 40% 2 04.05.2027 -
Charlie Webster Burton Albion Aktiv 118 / 99 40% 1 04.05.2027 -
Mathias Jørgensen Blackburn Rovers Aktiv 108 / 128 40% 2 03.05.2027 -
Josh Edwards Charlton Athletic Aktiv 111 / 125 40% 1 03.05.2027 -
Mohammad Alsalkhadi Damac Aktiv 100 / 116 40% 4 02.05.2027 -
Tyreece Campbell Charlton Athletic Aktiv 113 / 113 40% 2 30.04.2027 -
Jadsom Al Wahda Aktiv 128 / 125 40% 1 30.04.2027 -
Williams Manyama SuperSport United Aktiv 120 / 130 40% 2 27.04.2027 -
Ahmed Al-Nakhli Al-Hazem Aktiv 104 / 112 40% 3 25.04.2027 -
Oswin Appollis Orlando Pirates Aktiv 114 / 117 40% 3 25.04.2027 -
Andrea Carboni Monza Aktiv 123 / 130 40% 1 25.04.2027 -
Joel Bagan Cardiff City Aktiv 119 / 102 40% 1 25.04.2027 -
Brian De Keersmaecker Oxford United Aktiv 131 / 138 40% 1 23.04.2027 -
Zeidane Inoussa Swansea City Aktiv 115 / 134 40% 1 23.04.2027 -
David Petrović Al Nasr Aktiv 108 / 130 40% 2 22.04.2027 -
Adel Bouzida Paradou Aktiv 104 / 103 40% 1 22.04.2027 -
Armando Dobra Chesterfield Aktiv 98 / 112 40% 1 22.04.2027 -
Christos Mouzakitis Hull City Aktiv 140 / 130 40% 1 22.04.2027 -
Jay McGrath Doncaster Rovers Aktiv 96 / 110 40% 1 20.04.2027 -
Louie Barry Sheffield Wednesday Aktiv 114 / 123 40% 1 19.04.2027 -
Facundo Kruspzky Al Wahda Aktiv 118 / 113 40% 2 17.04.2027 -
Daniel Kyerewaa Reading Aktiv 108 / 107 40% 3 16.04.2027 -
Brahima Diarra Al Wahda Aktiv 108 / 122 40% 1 16.04.2027 -
Richard Koné Queens Park Rangers Aktiv 113 / 132 40% 1 15.04.2027 -
Armando Shashoua Gillingham Aktiv 103 / 93 40% 1 14.04.2027 -
Ibrahim Bayesh Al Dhafra Aktiv 114 / 107 40% 2 11.04.2027 -
Bonheur Mugisha Al-Hazem Aktiv 101 / 109 40% 2 10.04.2027 -
Ethan Bristow Tranmere Rovers Aktiv 99 / 96 40% 1 10.04.2027 -
Michael Baidoo Plymouth Argyle Aktiv 127 / 132 40% 1 10.04.2027 -
Derrick Fordjour Medeama Aktiv 101 / 83 40% 1 10.04.2027 -
Haitham Asiri Al-Qadisiyah Aktiv 120 / 99 40% 1 10.04.2027 -
Filippo Ranocchia Palermo Aktiv 127 / 145 40% 1 09.04.2027 -
Nathan Moriah-Welsh Mansfield Town Aktiv 119 / 99 40% 1 08.04.2027 -
Mohammed Al-Dossary Al-Ra'ed Aktiv 101 / 115 40% 1 08.04.2027 -
Alex Robertson Cardiff City Aktiv 116 / 137 40% 1 05.04.2027 -
Christopher Bonsu Baah Al-Qadisiyah Aktiv 119 / 132 40% 1 05.04.2027 -
Pedro Malheiro Al Wasl Aktiv 139 / 129 40% 1 04.04.2027 -
Hakim Sulemana Medeama Aktiv 95 / 89 40% 1 01.04.2027 -
Siyanda Ndlovu Bloemfontein Celtic Aktiv 128 / 133 40% 1 31.03.2027 -
Imad Riahi Arab Contractors Aktiv 119 / 112 40% 1 31.03.2027 -
Derensili Sanches Fernandes Huddersfield Town Aktiv 123 / 130 40% 1 29.03.2027 -
Sulaiman Hazazi Al-Riyadh Aktiv 112 / 112 40% 1 29.03.2027 -
Mahmoud Khalfan Al Shabab Aktiv 134 / 115 40% 1 28.03.2027 -
Dion Lopy Al-Ittihad Aktiv 132 / 137 40% 1 27.03.2027 -
Ali Saleh Sharjah Aktiv 112 / 103 40% 1 25.03.2027 -
Abdulmalik Al-Jaber Al-Nassr Aktiv 100 / 119 40% 1 25.03.2027 -
Aiman Yahya Al-Nassr Aktiv 117 / 128 40% 1 24.03.2027 -
Josh Tymon Swansea City Aktiv 129 / 107 40% 1 24.03.2027 -
Walid Omar Al Shaab Aktiv 104 / 107 40% 1 17.03.2027 -
Mohammed Abu Al-Shamat Al-Qadisiyah Aktiv 132 / 139 40% 1 13.03.2027 -
Mihai Lixandru Al-Fateh Aktiv 129 / 108 40% 1 11.03.2027 -
Phoenix Patterson Stevenage Aktiv 121 / 118 40% 1 10.03.2027 -
Brahian Palacios Al Wasl Aktiv 128 / 127 40% 2 09.03.2027 -
Moussa N'Diaye Al Nasr Aktiv 113 / 134 40% 1 07.03.2027 -
Saeed Baattia Al-Fateh Aktiv 106 / 115 40% 1 01.03.2027 -
Leandrinho Sharjah Aktiv 103 / 107 40% 1 01.03.2027 -
Victor Adeboyejo Ismaily Verloren 105 / 105 66% 1 01.01.2027 -
Amr Hossam Wadi Degla Aktiv 83 / 78 62% 1 10.08.2026 Befürworten
Youssef En-Nesyri Al-Ittihad Aktiv 124 / 124 40% 1 01.08.2026 -